Terminal Aerodrome Forecast
Issued by NWS Louisville, KY

Home | Current Version | Previous Version | Text Only | Print | Product List | Glossary On
Versions: 1 2 3 4 5 6 7 8 9 10 11 12 13 14
164
FTUS43 KLMK 111726
TAFLEX
TAF
KLEX 111726Z 1118/1218 33004KT P6SM SCT028 SCT250
      TEMPO 1118/1121 BKN028
     FM120000 VRB03KT P6SM BKN100
     FM121000 VRB03KT P6SM BKN050 PROB30 1212/1218 5SM -SN BR
      BKN025=

USA.gov is the U.S. government's official web portal to all federal, state and local government web resources and services.